Airfield :
LOGIN :

Register | Disclaimer

   EN    FR    IT 

 










Legend :    VFR   Marginal VFR   IFR   Intensive IFR   Very Intensive IFR
Visi :
Ceiling :
>= 8 km
>= 3000ft
5 to 8 km
1000 to 3000 ft
1500m to 5 km
500 to 1000 ft
800 to 1500m
200 to 500 ft
< 800m
< 200 ft
Symbols :   Thunderstorms  Fog  Heavy snow  Heavy precipitations  Wind > 20 kt
SIGMETs :     Misc.  Thunderstorms  Icing  Turbulence  Mountain Waves  Volcanic Ashes






- Airport Elevation : 465 ft
- IATA code : LEJ


EDDP - Leipzig Halle

CURRENT METAR :
  • 200620Z 20004KT 170V230 CAVOK 18/15 Q1022 NOSIG

EXPIRED METARs :
  • 200550Z 25005KT CAVOK 18/15 Q1022 NOSIG
  • 200520Z 24006KT 9999 FEW018 17/16 Q1022 NOSIG
  • 200450Z 25007KT 9999 FEW018 16/15 Q1022 NOSIG
  • 200420Z 25006KT 9999 FEW016 15/15 Q1022 NOSIG
  • 200350Z 25007KT CAVOK 15/14 Q1021 NOSIG

TAF TAF EDDP
Valid from the 20 at 06:00 until the 21 at 06:00 UTC


200500Z 2006/2106 25006KT 9999 SCT035
BECMG 2013/2016 14008KT
TEMPO 2016/2022 25025G45KT 4000 TSRAGR BKN020CB
PROB30
TEMPO 2018/2021 26035G55KT 1500 TSGR
BECMG 2018/2021 24020G35KT
BECMG 2021/2024 28015G25KT



MET'MAP, your aeronautical weather chart ! - Copyright ORBIFLY December 2007 - Disclaimer

ORBIFLY MET'MAP TEAM :

Programming & Development : Alexandra Zaïnal
Original concept : Baudouin d'Aumeries
Technical & hardware support : Manuel Goepfert
Assistance : Marc-Olivier Méhu

Contact : metmap@orbifly.com




SOURCES & CREDITS :

   NOAA